Wetterdaten: Woche 11.03.02 - 17.03.02 (KW11)
Datum Zeit Temperatur Luftfeuchte Luftdruck Regenmenge Wind Richtung Taupunkt Windchill
11.03.2002 00:00 0.7 C 89 % 1019.9 hPa 0.0 l/m 3.2 km/h (1 Bft) O-SO -0.9 C 0.1 C
11.03.2002 01:00 0.0 C 89 % 1020.3 hPa 0.0 l/m 2.3 km/h (1 Bft) O-SO -1.6 C -0.4 C
11.03.2002 02:00 -0.7 C 90 % 1020.3 hPa 0.0 l/m 0.9 km/h (0 Bft) O-SO -2.1 C -0.8 C
11.03.2002 03:00 -1.3 C 91 % 1020.1 hPa 0.0 l/m 2.0 km/h (1 Bft) O-SO -2.5 C -1.7 C
11.03.2002 04:00 -1.6 C 92 % 1020.8 hPa 0.0 l/m 2.0 km/h (1 Bft) O-SO -2.8 C -2.1 C
11.03.2002 05:00 -2.0 C 92 % 1020.9 hPa 0.0 l/m 1.2 km/h (1 Bft) O-SO -3.1 C -2.2 C
11.03.2002 06:00 -2.3 C 92 % 1020.9 hPa 0.0 l/m 1.0 km/h (0 Bft) O-SO -3.4 C -2.6 C
11.03.2002 07:00 -1.6 C 91 % 1021.0 hPa 0.0 l/m 0.0 km/h (0 Bft) N -2.8 C -1.6 C
11.03.2002 08:00 0.4 C 87 % 1021.9 hPa 0.0 l/m 0.2 km/h (0 Bft) O-SO -1.5 C 0.4 C
11.03.2002 09:00 2.2 C 80 % 1022.0 hPa 0.0 l/m 0.0 km/h (0 Bft) N -0.8 C 2.2 C
11.03.2002 10:00 6.1 C 66 % 1021.5 hPa 0.0 l/m 1.8 km/h (1 Bft) O-SO 0.1 C 6.0 C
11.03.2002 11:00 10.3 C 49 % 1020.9 hPa 0.0 l/m 1.9 km/h (1 Bft) O-SO 0.0 C 10.1 C
11.03.2002 12:00 14.0 C 37 % 1020.0 hPa 0.0 l/m 5.7 km/h (1 Bft) S-SO -0.5 C 14.0 C
11.03.2002 13:00 16.5 C 31 % 1019.3 hPa 0.0 l/m 8.6 km/h (2 Bft) SO -0.8 C 16.5 C
11.03.2002 14:00 18.0 C 32 % 1018.1 hPa 0.0 l/m 13.3 km/h (3 Bft) SO 1.1 C 18.0 C
11.03.2002 15:00 18.1 C 28 % 1017.6 hPa 0.0 l/m 11.4 km/h (2 Bft) S -0.8 C 18.1 C
11.03.2002 16:00 17.2 C 29 % 1016.8 hPa 0.0 l/m 10.6 km/h (2 Bft) S-SO -1.0 C 17.2 C
11.03.2002 17:00 16.2 C 29 % 1016.8 hPa 0.0 l/m 12.9 km/h (3 Bft) SO -1.8 C 16.2 C
11.03.2002 18:00 14.2 C 35 % 1016.8 hPa 0.0 l/m 12.1 km/h (2 Bft) SO -1.3 C 14.2 C
11.03.2002 19:00 11.2 C 44 % 1017.3 hPa 0.0 l/m 1.5 km/h (1 Bft) O-SO -0.7 C 11.2 C
11.03.2002 20:00 7.7 C 57 % 1017.8 hPa 0.0 l/m 0.5 km/h (0 Bft) O -0.3 C 7.7 C
11.03.2002 21:00 5.9 C 66 % 1017.8 hPa 0.0 l/m 0.7 km/h (0 Bft) O 0.1 C 5.8 C
11.03.2002 22:00 4.9 C 71 % 1017.9 hPa 0.0 l/m 1.0 km/h (0 Bft) O-SO 0.0 C 4.7 C
11.03.2002 23:00 3.7 C 77 % 1018.9 hPa 0.0 l/m 1.1 km/h (0 Bft) O-SO 0.1 C 3.7 C
12.03.2002 00:00 3.1 C 81 % 1018.9 hPa 0.0 l/m 0.5 km/h (0 Bft) O 0.1 C 3.0 C
12.03.2002 01:00 2.8 C 83 % 1018.9 hPa 0.0 l/m 1.1 km/h (0 Bft) O-SO 0.2 C 2.6 C
12.03.2002 02:00 2.6 C 85 % 1018.4 hPa 0.0 l/m 0.3 km/h (0 Bft) O-SO 0.3 C 2.6 C
12.03.2002 03:00 2.6 C 86 % 1017.8 hPa 0.0 l/m 1.2 km/h (1 Bft) O-SO 0.6 C 2.5 C
12.03.2002 04:00 2.7 C 86 % 1017.8 hPa 0.0 l/m 1.0 km/h (0 Bft) O-SO 0.6 C 2.6 C
12.03.2002 05:00 2.1 C 88 % 1017.8 hPa 0.0 l/m 2.6 km/h (1 Bft) O-SO 0.4 C 1.5 C
12.03.2002 06:00 1.9 C 89 % 1017.8 hPa 0.0 l/m 1.1 km/h (1 Bft) O-SO 0.3 C 1.7 C
12.03.2002 07:00 2.4 C 90 % 1017.8 hPa 0.0 l/m 1.7 km/h (1 Bft) O-SO 0.9 C 2.2 C
12.03.2002 08:00 3.9 C 85 % 1017.8 hPa 0.0 l/m 0.9 km/h (0 Bft) O-SO 1.7 C 3.9 C
12.03.2002 09:00 5.1 C 76 % 1017.8 hPa 0.0 l/m 0.2 km/h (0 Bft) W-NW 1.2 C 5.1 C
12.03.2002 10:00 7.2 C 66 % 1017.4 hPa 0.0 l/m 2.1 km/h (1 Bft) NW 1.3 C 7.1 C
12.03.2002 11:00 11.1 C 49 % 1016.8 hPa 0.0 l/m 2.4 km/h (1 Bft) NW 0.8 C 11.1 C
12.03.2002 12:00 14.7 C 35 % 1015.9 hPa 0.0 l/m 3.4 km/h (1 Bft) NW -0.6 C 14.7 C
12.03.2002 13:00 16.6 C 32 % 1014.8 hPa 0.0 l/m 3.5 km/h (1 Bft) NW -0.3 C 16.6 C
12.03.2002 14:00 17.7 C 34 % 1013.7 hPa 0.0 l/m 1.6 km/h (1 Bft) W-NW 1.6 C 17.7 C
12.03.2002 15:00 17.6 C 31 % 1013.6 hPa 0.0 l/m 0.7 km/h (0 Bft) W-NW 0.3 C 17.6 C
12.03.2002 16:00 16.9 C 33 % 1013.6 hPa 0.0 l/m 0.0 km/h (0 Bft) N 0.3 C 16.9 C
12.03.2002 17:00 15.1 C 42 % 1013.6 hPa 0.0 l/m 1.3 km/h (1 Bft) O-SO 2.2 C 15.1 C
12.03.2002 18:00 12.6 C 56 % 1013.6 hPa 0.0 l/m 5.0 km/h (1 Bft) O-SO 4.2 C 12.6 C
12.03.2002 19:00 10.6 C 65 % 1014.5 hPa 0.0 l/m 5.3 km/h (1 Bft) O-SO 4.4 C 10.5 C
12.03.2002 20:00 9.1 C 69 % 1014.7 hPa 0.0 l/m 1.5 km/h (1 Bft) O-SO 3.8 C 8.9 C
12.03.2002 21:00 7.8 C 75 % 1014.7 hPa 0.0 l/m 0.8 km/h (0 Bft) O-SO 3.5 C 7.7 C
12.03.2002 22:00 6.5 C 78 % 1014.7 hPa 0.0 l/m 1.2 km/h (1 Bft) O-SO 3.0 C 6.4 C
12.03.2002 23:00 6.4 C 78 % 1015.1 hPa 0.0 l/m 1.6 km/h (1 Bft) O-SO 2.9 C 6.3 C
13.03.2002 00:00 6.1 C 82 % 1015.7 hPa 0.0 l/m 2.0 km/h (1 Bft) O-SO 3.2 C 5.8 C
13.03.2002 01:00 5.7 C 84 % 1015.7 hPa 0.0 l/m 0.0 km/h (0 Bft) N 3.2 C 5.7 C
13.03.2002 02:00 4.4 C 86 % 1015.7 hPa 0.0 l/m 0.5 km/h (0 Bft) O-SO 2.3 C 4.4 C
13.03.2002 03:00 3.2 C 90 % 1015.7 hPa 0.0 l/m 0.1 km/h (0 Bft) O-SO 1.7 C 3.2 C
13.03.2002 04:00 2.5 C 92 % 1015.7 hPa 0.0 l/m 1.2 km/h (1 Bft) O-SO 1.4 C 2.4 C
13.03.2002 05:00 2.1 C 93 % 1015.7 hPa 0.0 l/m 0.9 km/h (0 Bft) O-SO 1.0 C 1.9 C
13.03.2002 06:00 1.8 C 94 % 1015.7 hPa 0.0 l/m 1.2 km/h (1 Bft) O-SO 0.9 C 1.5 C
13.03.2002 07:00 3.0 C 93 % 1016.0 hPa 0.0 l/m 0.0 km/h (0 Bft) N 2.0 C 3.0 C
13.03.2002 08:00 4.2 C 89 % 1016.8 hPa 0.0 l/m 0.0 km/h (0 Bft) N 2.5 C 4.2 C
13.03.2002 09:00 6.5 C 75 % 1016.6 hPa 0.0 l/m 0.3 km/h (0 Bft) W-NW 2.3 C 6.4 C
13.03.2002 10:00 9.6 C 61 % 1015.7 hPa 0.0 l/m 0.3 km/h (0 Bft) W-NW 2.4 C 9.6 C
13.03.2002 11:00 13.4 C 48 % 1015.6 hPa 0.0 l/m 2.6 km/h (1 Bft) O-SO 2.7 C 13.4 C
13.03.2002 12:00 17.0 C 38 % 1014.7 hPa 0.0 l/m 6.9 km/h (2 Bft) SO 2.4 C 17.0 C
13.03.2002 13:00 18.8 C 35 % 1013.7 hPa 0.0 l/m 7.0 km/h (2 Bft) SO 3.2 C 18.8 C
13.03.2002 14:00 19.1 C 35 % 1012.6 hPa 0.0 l/m 6.6 km/h (2 Bft) O-SO 3.5 C 19.1 C
13.03.2002 15:00 19.2 C 36 % 1011.7 hPa 0.0 l/m 6.3 km/h (2 Bft) O-SO 3.9 C 19.2 C
13.03.2002 16:00 18.8 C 37 % 1011.5 hPa 0.0 l/m 2.0 km/h (1 Bft) O-SO 3.8 C 18.8 C
13.03.2002 17:00 17.6 C 43 % 1010.5 hPa 0.0 l/m 2.7 km/h (1 Bft) O-SO 4.8 C 17.6 C
13.03.2002 18:00 14.8 C 50 % 1010.5 hPa 0.0 l/m 5.9 km/h (2 Bft) O-SO 4.4 C 14.8 C
13.03.2002 19:00 11.1 C 64 % 1010.7 hPa 0.0 l/m 3.9 km/h (1 Bft) O-SO 4.6 C 11.1 C
13.03.2002 20:00 9.0 C 73 % 1011.5 hPa 0.0 l/m 4.0 km/h (1 Bft) O-SO 4.3 C 8.5 C
13.03.2002 21:00 7.5 C 80 % 1011.5 hPa 0.0 l/m 1.2 km/h (1 Bft) O 4.3 C 7.5 C
13.03.2002 22:00 6.6 C 82 % 1011.5 hPa 0.0 l/m 2.3 km/h (1 Bft) O-SO 3.7 C 6.4 C
13.03.2002 23:00 5.7 C 85 % 1011.5 hPa 0.0 l/m 2.1 km/h (1 Bft) O 3.5 C 5.4 C
14.03.2002 00:00 4.8 C 88 % 1010.9 hPa 0.0 l/m 1.2 km/h (1 Bft) O-SO 3.0 C 4.7 C
14.03.2002 01:00 4.1 C 91 % 1010.5 hPa 0.0 l/m 0.6 km/h (0 Bft) O-SO 2.7 C 4.1 C
14.03.2002 02:00 3.7 C 94 % 1010.5 hPa 0.0 l/m 0.2 km/h (0 Bft) O 2.7 C 3.7 C
14.03.2002 03:00 4.2 C 93 % 1009.7 hPa 0.0 l/m 5.1 km/h (1 Bft) O-SO 3.1 C 3.2 C
14.03.2002 04:00 4.0 C 92 % 1008.9 hPa 0.0 l/m 6.6 km/h (2 Bft) O-SO 2.8 C 2.6 C
14.03.2002 05:00 2.8 C 93 % 1008.4 hPa 0.0 l/m 0.0 km/h (0 Bft) N 1.9 C 2.8 C
14.03.2002 06:00 2.5 C 96 % 1007.5 hPa 0.0 l/m 1.1 km/h (0 Bft) O-SO 1.9 C 2.4 C
14.03.2002 07:00 3.6 C 98 % 1007.3 hPa 0.0 l/m 0.7 km/h (0 Bft) O-SO 3.3 C 3.5 C
14.03.2002 08:00 5.5 C 90 % 1007.3 hPa 0.0 l/m 0.6 km/h (0 Bft) NW 3.9 C 5.5 C
14.03.2002 09:00 7.4 C 81 % 1007.3 hPa 0.0 l/m 0.3 km/h (0 Bft) N-NW 4.3 C 7.4 C
14.03.2002 10:00 8.9 C 76 % 1006.9 hPa 0.0 l/m 0.4 km/h (0 Bft) W-NW 4.9 C 8.9 C
14.03.2002 11:00 9.9 C 73 % 1006.3 hPa 0.0 l/m 1.9 km/h (1 Bft) NW 5.2 C 9.7 C
14.03.2002 12:00 10.1 C 73 % 1006.3 hPa 0.0 l/m 1.2 km/h (1 Bft) N-NW 5.4 C 10.1 C
14.03.2002 13:00 8.9 C 78 % 1006.4 hPa 0.0 l/m 11.3 km/h (2 Bft) NW 5.2 C 7.2 C
14.03.2002 14:00 7.4 C 81 % 1007.3 hPa 0.0 l/m 8.6 km/h (2 Bft) W-NW 4.4 C 6.0 C
14.03.2002 15:00 6.8 C 85 % 1008.2 hPa 0.0 l/m 11.8 km/h (2 Bft) NW 4.5 C 4.7 C
14.03.2002 16:00 7.6 C 81 % 1008.4 hPa 0.0 l/m 5.5 km/h (1 Bft) NW 4.5 C 6.8 C
14.03.2002 17:00 8.0 C 78 % 1008.4 hPa 0.0 l/m 2.2 km/h (1 Bft) NW 4.5 C 7.8 C
14.03.2002 18:00 6.9 C 86 % 1008.4 hPa 0.0 l/m 0.1 km/h (0 Bft) N 4.7 C 6.9 C
14.03.2002 19:00 5.5 C 88 % 1008.4 hPa 0.0 l/m 0.1 km/h (0 Bft) N 3.7 C 5.5 C
14.03.2002 20:00 4.6 C 92 % 1009.1 hPa 0.0 l/m 0.0 km/h (0 Bft) N 3.4 C 4.6 C
14.03.2002 21:00 4.1 C 97 % 1009.4 hPa 0.0 l/m 0.2 km/h (0 Bft) O 3.6 C 4.1 C
14.03.2002 22:00 3.1 C 95 % 1009.9 hPa 0.0 l/m 0.0 km/h (0 Bft) N 2.4 C 3.1 C
14.03.2002 23:00 2.4 C 98 % 1009.9 hPa 0.0 l/m 1.3 km/h (1 Bft) O 2.1 C 2.3 C
15.03.2002 00:00 1.9 C 99 % 1010.5 hPa 0.0 l/m 0.0 km/h (0 Bft) N 1.7 C 1.9 C
15.03.2002 01:00 1.5 C 99 % 1010.5 hPa 0.0 l/m 0.0 km/h (0 Bft) N 1.4 C 1.5 C
15.03.2002 02:00 1.4 C 99 % 1010.5 hPa 0.0 l/m 0.0 km/h (0 Bft) N 1.3 C 1.4 C
15.03.2002 03:00 0.8 C 100 % 1010.5 hPa 0.0 l/m 0.7 km/h (0 Bft) O-SO 0.8 C 0.7 C
15.03.2002 04:00 0.2 C 100 % 1010.5 hPa 0.0 l/m 1.1 km/h (0 Bft) O-SO 0.2 C 0.0 C
15.03.2002 05:00 0.2 C 100 % 1010.5 hPa 0.0 l/m 0.0 km/h (0 Bft) N 0.2 C 0.2 C
15.03.2002 06:00 0.9 C 100 % 1011.1 hPa 0.0 l/m 0.6 km/h (0 Bft) O-SO 0.9 C 0.9 C
15.03.2002 07:00 1.8 C 99 % 1011.5 hPa 0.0 l/m 0.0 km/h (0 Bft) N 1.6 C 1.8 C
15.03.2002 08:00 2.9 C 99 % 1011.6 hPa 0.0 l/m 0.1 km/h (0 Bft) N 2.8 C 2.9 C
15.03.2002 09:00 4.3 C 97 % 1012.6 hPa 0.0 l/m 0.1 km/h (0 Bft) W-NW 3.9 C 4.3 C
15.03.2002 10:00 6.0 C 90 % 1012.6 hPa 0.0 l/m 1.8 km/h (1 Bft) O-SO 4.4 C 5.6 C
15.03.2002 11:00 7.7 C 81 % 1012.6 hPa 0.0 l/m 2.9 km/h (1 Bft) O-SO 4.6 C 7.4 C
15.03.2002 12:00 9.6 C 72 % 1012.6 hPa 0.0 l/m 8.1 km/h (2 Bft) SO 4.9 C 8.8 C
15.03.2002 13:00 11.3 C 66 % 1011.6 hPa 0.0 l/m 4.7 km/h (1 Bft) NW 5.1 C 11.2 C
15.03.2002 14:00 12.9 C 58 % 1011.5 hPa 0.0 l/m 5.0 km/h (1 Bft) NW 4.9 C 12.9 C
15.03.2002 15:00 13.4 C 57 % 1011.5 hPa 0.0 l/m 2.5 km/h (1 Bft) NW 5.0 C 13.4 C
15.03.2002 16:00 13.2 C 57 % 1011.5 hPa 0.0 l/m 12.6 km/h (3 Bft) W-NW 4.7 C 13.2 C
15.03.2002 17:00 12.3 C 62 % 1012.3 hPa 0.0 l/m 10.7 km/h (2 Bft) NW 5.1 C 12.3 C
15.03.2002 18:00 10.5 C 71 % 1013.1 hPa 0.0 l/m 2.1 km/h (1 Bft) W-NW 5.4 C 10.5 C
15.03.2002 19:00 9.5 C 75 % 1013.7 hPa 0.0 l/m 1.7 km/h (1 Bft) SO 5.2 C 9.4 C
15.03.2002 20:00 9.3 C 76 % 1014.7 hPa 0.0 l/m 1.4 km/h (1 Bft) SO 5.3 C 9.2 C
15.03.2002 21:00 8.0 C 83 % 1014.7 hPa 0.0 l/m 3.0 km/h (1 Bft) O-SO 5.3 C 7.6 C
15.03.2002 22:00 7.8 C 84 % 1015.4 hPa 0.0 l/m 6.5 km/h (2 Bft) O-SO 5.4 C 6.9 C
15.03.2002 23:00 6.8 C 87 % 1015.7 hPa 0.0 l/m 0.0 km/h (0 Bft) N 4.9 C 6.8 C
16.03.2002 00:00 5.3 C 92 % 1015.7 hPa 0.0 l/m 1.0 km/h (0 Bft) O-SO 4.1 C 5.1 C
16.03.2002 01:00 4.2 C 96 % 1016.8 hPa 0.0 l/m 0.1 km/h (0 Bft) O-SO 3.6 C 4.2 C
16.03.2002 02:00 3.0 C 96 % 1016.8 hPa 0.0 l/m 0.0 km/h (0 Bft) N 2.4 C 3.0 C
16.03.2002 03:00 2.8 C 98 % 1016.8 hPa 0.0 l/m 0.1 km/h (0 Bft) O-SO 2.5 C 2.8 C
16.03.2002 04:00 1.9 C 98 % 1016.8 hPa 0.0 l/m 0.2 km/h (0 Bft) O-SO 1.6 C 1.9 C
16.03.2002 05:00 1.7 C 98 % 1016.8 hPa 0.0 l/m 0.4 km/h (0 Bft) O-SO 1.5 C 1.7 C
16.03.2002 06:00 2.2 C 99 % 1016.8 hPa 0.0 l/m 0.9 km/h (0 Bft) O-SO 2.1 C 2.1 C
16.03.2002 07:00 2.7 C 99 % 1016.8 hPa 0.0 l/m 0.2 km/h (0 Bft) SO 2.6 C 2.7 C
16.03.2002 08:00 3.3 C 99 % 1016.8 hPa 0.0 l/m 0.0 km/h (0 Bft) N 3.2 C 3.3 C
16.03.2002 09:00 4.7 C 99 % 1016.8 hPa 0.0 l/m 1.3 km/h (1 Bft) O-SO 4.6 C 4.6 C
16.03.2002 10:00 7.8 C 85 % 1016.6 hPa 0.0 l/m 0.9 km/h (0 Bft) W-NW 5.4 C 7.7 C
16.03.2002 11:00 11.7 C 66 % 1015.7 hPa 0.0 l/m 0.8 km/h (0 Bft) NW 5.4 C 11.7 C
16.03.2002 12:00 15.1 C 49 % 1014.8 hPa 0.0 l/m 9.6 km/h (2 Bft) O-SO 4.4 C 15.1 C
16.03.2002 13:00 16.5 C 44 % 1014.7 hPa 0.0 l/m 15.6 km/h (3 Bft) O-SO 4.3 C 16.5 C
16.03.2002 14:00 16.9 C 43 % 1013.6 hPa 0.0 l/m 16.8 km/h (3 Bft) O-SO 4.1 C 16.9 C
16.03.2002 15:00 16.9 C 42 % 1013.6 hPa 0.0 l/m 13.4 km/h (3 Bft) O-SO 3.7 C 16.9 C
16.03.2002 16:00 15.6 C 42 % 1012.6 hPa 0.0 l/m 8.4 km/h (2 Bft) O-SO 2.8 C 15.6 C
16.03.2002 17:00 14.0 C 48 % 1012.6 hPa 0.0 l/m 0.6 km/h (0 Bft) O-SO 3.1 C 14.0 C
16.03.2002 18:00 11.9 C 54 % 1012.6 hPa 0.0 l/m 0.0 km/h (0 Bft) N 3.0 C 11.9 C
16.03.2002 19:00 9.8 C 67 % 1013.3 hPa 0.0 l/m 0.1 km/h (0 Bft) O 3.9 C 9.8 C
16.03.2002 20:00 8.9 C 76 % 1013.6 hPa 0.0 l/m 1.8 km/h (1 Bft) O-SO 4.8 C 8.8 C
16.03.2002 21:00 8.4 C 76 % 1013.6 hPa 0.0 l/m 2.1 km/h (1 Bft) O-SO 4.3 C 8.1 C
16.03.2002 22:00 8.1 C 75 % 1013.6 hPa 0.0 l/m 0.5 km/h (0 Bft) O-SO 4.0 C 8.1 C
16.03.2002 23:00 7.2 C 79 % 1013.6 hPa 0.0 l/m 0.5 km/h (0 Bft) O-SO 3.8 C 7.1 C
17.03.2002 00:00 6.1 C 85 % 1013.6 hPa 0.0 l/m 0.3 km/h (0 Bft) O 3.8 C 6.0 C
17.03.2002 01:00 4.9 C 90 % 1013.6 hPa 0.0 l/m 0.4 km/h (0 Bft) O 3.5 C 4.9 C
17.03.2002 02:00 4.2 C 92 % 1013.6 hPa 0.0 l/m 0.6 km/h (0 Bft) O 2.9 C 4.1 C
17.03.2002 03:00 3.6 C 93 % 1013.6 hPa 0.0 l/m 1.6 km/h (1 Bft) O-SO 2.6 C 3.4 C
17.03.2002 04:00 2.9 C 94 % 1013.6 hPa 0.0 l/m 0.2 km/h (0 Bft) O 2.0 C 2.9 C
17.03.2002 05:00 2.6 C 96 % 1013.6 hPa 0.0 l/m 1.5 km/h (1 Bft) O-SO 2.0 C 2.3 C
17.03.2002 06:00 2.9 C 97 % 1013.6 hPa 0.0 l/m 1.6 km/h (1 Bft) O-SO 2.5 C 2.6 C
17.03.2002 07:00 4.1 C 98 % 1014.1 hPa 0.0 l/m 0.0 km/h (0 Bft) N 3.8 C 4.1 C
17.03.2002 08:00 5.9 C 91 % 1014.7 hPa 0.0 l/m 0.3 km/h (0 Bft) SO 4.4 C 5.9 C
17.03.2002 09:00 8.2 C 81 % 1014.7 hPa 0.0 l/m 0.9 km/h (0 Bft) O-SO 5.1 C 8.1 C
17.03.2002 10:00 10.6 C 70 % 1014.2 hPa 0.0 l/m 3.8 km/h (1 Bft) O-SO 5.3 C 10.5 C
17.03.2002 11:00 13.1 C 59 % 1013.6 hPa 0.0 l/m 4.5 km/h (1 Bft) SO 5.4 C 13.1 C
17.03.2002 12:00 15.7 C 52 % 1013.6 hPa 0.0 l/m 9.8 km/h (2 Bft) SO 5.9 C 15.7 C
17.03.2002 13:00 16.9 C 48 % 1012.7 hPa 0.0 l/m 6.6 km/h (2 Bft) SO 5.7 C 16.9 C
17.03.2002 14:00 17.7 C 42 % 1012.1 hPa 0.0 l/m 7.8 km/h (2 Bft) W-NW 4.5 C 17.7 C
17.03.2002 15:00 17.9 C 37 % 1011.5 hPa 0.0 l/m 11.5 km/h (2 Bft) NW 2.8 C 17.9 C
17.03.2002 16:00 18.1 C 39 % 1011.5 hPa 0.0 l/m 3.5 km/h (1 Bft) W-NW 3.9 C 18.1 C
17.03.2002 17:00 16.0 C 48 % 1011.5 hPa 0.0 l/m 2.4 km/h (1 Bft) SO 4.8 C 16.0 C
17.03.2002 18:00 13.4 C 55 % 1011.5 hPa 0.0 l/m 2.2 km/h (1 Bft) O-SO 4.5 C 13.4 C
17.03.2002 19:00 11.4 C 65 % 1011.5 hPa 0.0 l/m 2.7 km/h (1 Bft) O-SO 5.1 C 11.4 C
17.03.2002 20:00 10.3 C 69 % 1011.8 hPa 0.0 l/m 4.4 km/h (1 Bft) O-SO 4.9 C 10.2 C
17.03.2002 21:00 8.9 C 76 % 1012.6 hPa 0.0 l/m 1.0 km/h (0 Bft) O-SO 4.9 C 8.8 C
17.03.2002 22:00 8.0 C 78 % 1012.6 hPa 0.0 l/m 0.8 km/h (0 Bft) O-SO 4.4 C 8.0 C
17.03.2002 23:00 7.0 C 83 % 1012.6 hPa 0.0 l/m 0.9 km/h (0 Bft) O-SO 4.3 C 6.9 C
Min-Datum _ 11.03.02 11.03.02 14.03.02 - 11.03.02 - 11.03.02 11.03.02
_ Min-Zeit 06:50 14:20 10:38 - 00:23 - 06:56 06:17
Minimum _ -2.5 C 26 % 1006.3 hPa - 0.0 km/h (0 Bft) - -3.8 C -5.5 C
Max-Datum _ 13.03.02 14.03.02 11.03.02 11.03.02 14.03.02 - 17.03.02 13.03.02
_ Max-Zeit 14:04 06:05 09:00 00:02 13:29 - 12:41 14:04
Maximum _ 19.5 C 100 % 1022.0 hPa 0.0 l/m 30.7 km/h
NW (5 Bft)
- 6.5 C 19.5 C
Durchschnitt _ 7.8 C 74 % 1014.0 hPa #0.0 l/m 2.8 km/h (1 Bft) O-SO 2.6 C 7.6 C

Durchschnitt Minimum Temp.6.8 C
Durchschnitt Maximum Temp.8.7 C
© Kaiko 2002